Time;durP1;ratioP1;P1;durP2;ratioP2;P2;SDS_P1;SDS_P2;PMS_P1;PMS_P2;Temp;Humidity;BMP_temperature;BMP_pressure;BME280_temperature;BME280_humidity;BME280_pressure;Samples;Min_cycle;Max_cycle;Signal;HPM_P1;HPM_P2
2022/12/17 13:06:51;;;;;;;26.55;10.93;;;;;;;20.62;63.47;100690.00;5030661;28;20048;-78
2022/12/17 13:09:17;;;;;;;28.40;10.25;;;;;;;20.59;63.06;100684.91;5030474;28;20037;-77
2022/12/17 13:11:46;;;;;;;33.05;10.73;;;;;;;20.56;62.63;100704.41;5030663;28;20036;-77
2022/12/17 13:14:28;;;;;;;37.13;10.52;;;;;;;20.56;62.47;100709.88;5030279;28;20049;-79
2022/12/17 13:17:00;;;;;;;29.13;9.82;;;;;;;20.43;62.33;100706.94;5030215;28;20052;-77
2022/12/17 13:19:40;;;;;;;23.98;10.02;;;;;;;20.23;62.35;100683.91;5030891;28;20267;-77
2022/12/17 13:22:09;;;;;;;27.05;10.25;;;;;;;20.36;62.32;100716.94;5033686;28;20048;-78
2022/12/17 13:24:35;;;;;;;24.17;12.18;;;;;;;20.37;62.30;100731.41;5036692;28;20593;-76
2022/12/17 13:27:00;;;;;;;22.00;9.77;;;;;;;20.37;61.97;100735.00;5035353;28;20102;-77
2022/12/17 13:29:32;;;;;;;25.58;8.73;;;;;;;20.29;61.86;100745.16;5029435;28;20028;-76
2022/12/17 13:32:04;;;;;;;22.85;9.40;;;;;;;20.33;62.08;100763.75;5031782;28;20029;-77
2022/12/17 13:34:41;;;;;;;36.17;10.07;;;;;;;20.32;61.96;100763.91;5038025;28;20022;-78
2022/12/17 13:37:13;;;;;;;44.03;11.25;;;;;;;20.10;61.85;100738.31;5032450;28;20783;-77
2022/12/17 13:40:07;;;;;;;24.88;10.10;;;;;;;19.95;61.65;100727.34;5031227;28;20477;-77
2022/12/17 13:42:35;;;;;;;21.67;10.27;;;;;;;20.12;61.37;100788.13;5027715;28;20052;-77
2022/12/17 13:45:01;;;;;;;21.75;9.82;;;;;;;20.02;61.41;100791.13;5028120;28;20179;-79
2022/12/17 13:47:34;;;;;;;25.95;9.35;;;;;;;19.94;61.63;100782.97;5027241;28;20038;-76
2022/12/17 13:50:03;;;;;;;29.15;9.93;;;;;;;19.92;61.70;100795.09;5027776;28;20520;-77
2022/12/17 13:52:31;;;;;;;18.58;8.68;;;;;;;19.88;62.04;100793.75;5027510;28;20087;-76
2022/12/17 13:55:12;;;;;;;20.88;9.18;;;;;;;19.86;61.99;100793.09;5027065;28;20059;-77
2022/12/17 13:57:45;;;;;;;27.58;10.55;;;;;;;19.80;61.96;100807.47;5027343;28;20037;-78
2022/12/17 14:00:17;;;;;;;;;;;;;;;19.73;62.08;100806.47;5027604;28;20053;-77
2022/12/17 14:02:42;;;;;;;33.85;10.38;;;;;;;19.61;62.37;100799.72;5027590;28;19909;-77
2022/12/17 14:05:23;;;;;;;18.75;9.50;;;;;;;19.55;62.57;100810.34;5027656;28;20033;-78
2022/12/17 14:07:48;;;;;;;38.47;10.10;;;;;;;19.55;62.79;100823.13;5027247;28;20408;-77
2022/12/17 14:10:16;;;;;;;34.88;9.38;;;;;;;19.51;62.71;100835.41;5027566;28;20029;-78
2022/12/17 14:12:42;;;;;;;25.33;10.23;;;;;;;19.37;62.63;100823.34;5026457;28;20512;-77
2022/12/17 14:15:23;;;;;;;23.40;9.65;;;;;;;19.42;62.42;100831.00;5026977;28;20025;-76
2022/12/17 14:17:49;;;;;;;20.80;8.82;;;;;;;19.33;62.22;100832.91;5026768;28;20605;-76
2022/12/17 14:20:19;;;;;;;22.50;9.95;;;;;;;19.21;62.17;100839.75;5028743;28;20041;-78
2022/12/17 14:22:48;;;;;;;29.02;10.18;;;;;;;19.02;61.57;100807.44;5029498;28;20033;-78
2022/12/17 14:25:20;;;;;;;38.10;10.77;;;;;;;19.08;61.84;100844.91;5029715;28;20022;-78
2022/12/17 14:27:56;;;;;;;25.33;10.98;;;;;;;18.99;61.84;100832.31;5029446;28;20033;-77
2022/12/17 14:30:40;;;;;;;31.73;11.07;;;;;;;18.95;61.71;100833.72;5029545;28;20511;-76
2022/12/17 14:33:24;;;;;;;28.30;9.85;;;;;;;18.86;61.90;100832.03;5029161;28;20042;-76
2022/12/17 14:35:55;;;;;;;23.90;10.35;;;;;;;18.81;61.59;100820.78;5029828;28;20487;-75
2022/12/17 14:38:21;;;;;;;20.90;9.65;;;;;;;18.77;61.76;100822.16;5033586;28;20041;-78
2022/12/17 14:40:46;;;;;;;44.00;13.50;;;;;;;18.57;62.06;100797.16;5034518;28;20361;-76
2022/12/17 14:43:13;;;;;;;28.10;11.82;;;;;;;18.70;62.06;100829.31;5037872;28;20088;-75
2022/12/17 14:51:26;;;;;;;37.83;15.38;;;;;;;18.65;61.82;100839.88;5033208;28;20048;-76
2022/12/17 14:53:52;;;;;;;36.60;14.95;;;;;;;18.58;61.74;100836.13;5030911;28;20052;-76
2022/12/17 14:56:22;;;;;;;76.40;16.98;;;;;;;18.53;62.12;100816.75;5032760;28;20026;-73
2022/12/17 14:58:47;;;;;;;30.92;13.18;;;;;;;18.33;62.25;100789.81;5032640;28;20513;-74
2022/12/17 15:01:13;;;;;;;60.30;14.73;;;;;;;18.51;62.12;100824.22;5032451;28;20115;-74
2022/12/17 15:03:41;;;;;;;68.07;19.85;;;;;;;18.48;62.51;100819.94;5032727;28;20469;-73
2022/12/17 15:06:10;;;;;;;55.13;25.02;;;;;;;18.48;62.37;100820.78;5032600;28;20029;-74
2022/12/17 15:08:40;;;;;;;92.40;26.33;;;;;;;18.46;62.37;100822.84;5032440;28;20374;-74
2022/12/17 15:11:05;;;;;;;92.63;28.33;;;;;;;18.43;62.61;100815.00;5032307;28;20061;-74
2022/12/17 15:13:31;;;;;;;79.28;32.22;;;;;;;18.46;62.56;100828.28;5032010;28;20618;-73
2022/12/17 15:15:56;;;;;;;177.07;38.42;;;;;;;18.44;62.61;100824.88;5032025;28;20025;-74
2022/12/17 15:18:22;;;;;;;123.85;32.63;;;;;;;18.31;62.89;100816.38;5031932;28;20113;-73
2022/12/17 15:20:47;;;;;;;106.50;31.17;;;;;;;18.34;63.22;100829.66;5032066;28;20472;-75
2022/12/17 15:23:18;;;;;;;79.03;36.92;;;;;;;18.32;63.27;100831.69;5033937;28;20051;-74
2022/12/17 15:25:45;;;;;;;121.57;44.28;;;;;;;18.14;63.45;100794.75;5051094;28;20025;-74
2022/12/17 15:28:10;;;;;;;103.65;33.97;;;;;;;18.23;63.57;100820.94;5050898;28;20534;-73
2022/12/17 15:30:37;;;;;;;96.80;37.40;;;;;;;18.13;63.70;100826.59;5050697;28;20028;-75
2022/12/17 15:33:02;;;;;;;106.60;41.63;;;;;;;18.06;64.01;100832.84;5050756;28;20039;-74
2022/12/17 15:35:28;;;;;;;134.10;34.00;;;;;;;17.90;64.77;100841.84;5047841;28;20020;-75
2022/12/17 15:37:54;;;;;;;123.05;33.00;;;;;;;17.82;64.95;100828.22;5050765;28;20021;-74
2022/12/17 15:40:20;;;;;;;88.53;27.15;;;;;;;17.66;65.28;100822.72;5050776;28;20021;-72
2022/12/17 15:45:30;;;;;;;64.97;22.55;;;;;;;17.56;65.37;100822.00;5054290;28;20063;-74
2022/12/17 15:47:56;;;;;;;42.15;21.52;;;;;;;17.57;65.32;100823.72;5049949;28;20059;-75
2022/12/17 15:50:21;;;;;;;42.35;19.67;;;;;;;17.58;65.34;100825.44;5050458;28;20084;-73
2022/12/17 15:52:47;;;;;;;50.90;19.30;;;;;;;17.51;65.52;100840.66;5050771;28;20467;-75
2022/12/17 15:55:12;;;;;;;46.65;20.08;;;;;;;17.45;65.93;100830.44;5050813;28;20079;-74
2022/12/17 15:57:38;;;;;;;52.78;22.27;;;;;;;17.24;65.94;100798.25;5050473;28;20032;-73
2022/12/17 16:00:04;;;;;;;42.22;22.27;;;;;;;17.30;66.10;100817.47;5050598;28;20035;-73
2022/12/17 16:02:29;;;;;;;44.25;22.45;;;;;;;17.38;66.23;100839.25;5050590;28;20035;-73
2022/12/17 16:04:54;;;;;;;56.65;22.58;;;;;;;17.31;66.30;100830.03;5050371;28;20040;-73
2022/12/17 16:07:20;;;;;;;48.83;20.65;;;;;;;17.13;66.32;100803.94;5050401;28;20033;-71
2022/12/17 16:09:45;;;;;;;37.45;20.02;;;;;;;17.27;66.52;100846.84;5048790;28;20121;-73
2022/12/17 16:12:11;;;;;;;35.65;18.25;;;;;;;17.11;66.87;100823.16;5050098;28;20021;-74
2022/12/17 16:14:36;;;;;;;32.28;18.58;;;;;;;17.22;66.92;100847.31;5049878;28;20032;-72
2022/12/17 16:17:02;;;;;;;29.50;17.92;;;;;;;17.16;67.21;100842.53;5050031;28;20036;-74
2022/12/17 16:19:27;;;;;;;37.45;17.17;;;;;;;17.19;67.27;100866.69;5049533;28;20078;-76
2022/12/17 16:21:52;;;;;;;30.05;14.60;;;;;;;17.13;67.44;100863.75;5050258;28;20492;-74
2022/12/17 16:24:18;;;;;;;30.90;16.55;;;;;;;17.13;67.68;100863.75;5046963;28;20064;-73
2022/12/17 16:26:43;;;;;;;39.45;17.02;;;;;;;17.10;67.68;100873.09;5049737;28;20490;-73
2022/12/17 16:29:09;;;;;;;31.15;15.50;;;;;;;17.13;67.79;100877.34;5050210;28;20029;-73
2022/12/17 16:31:34;;;;;;;35.78;16.30;;;;;;;17.11;67.73;100882.94;5049514;28;20468;-73
2022/12/17 16:34:00;;;;;;;42.17;17.25;;;;;;;17.06;68.02;100890.75;5050060;28;20028;-74
2022/12/17 16:36:25;;;;;;;37.63;16.13;;;;;;;17.15;67.99;100880.78;5049682;28;20060;-75
2022/12/17 16:38:52;;;;;;;30.50;17.00;;;;;;;17.17;68.04;100887.75;5049610;28;20032;-73
2022/12/17 16:41:19;;;;;;;43.42;17.35;;;;;;;17.18;67.82;100880.44;5049272;28;20028;-73
2022/12/17 16:43:46;;;;;;;39.72;18.20;;;;;;;17.12;67.70;100889.25;5051287;28;20029;-73
2022/12/17 16:46:29;;;;;;;37.80;17.80;;;;;;;16.97;67.44;100869.94;5053351;28;20020;-74
2022/12/17 16:48:56;;;;;;;43.70;18.33;;;;;;;17.14;67.54;100907.09;5052424;28;20525;-73
2022/12/17 16:51:24;;;;;;;43.42;20.40;;;;;;;17.10;67.60;100913.00;5049132;28;20412;-72
2022/12/17 16:53:49;;;;;;;39.35;18.85;;;;;;;17.05;67.38;100902.63;5049221;28;20573;-74
2022/12/17 16:56:17;;;;;;;39.28;19.98;;;;;;;16.77;67.44;100872.03;5049361;28;20032;-73
2022/12/17 16:58:42;;;;;;;31.65;19.23;;;;;;;16.94;67.28;100910.19;5049435;28;20031;-73
2022/12/17 17:01:08;;;;;;;37.47;19.48;;;;;;;16.93;67.38;100922.91;5048871;28;20344;-72
2022/12/17 17:03:33;;;;;;;28.77;17.15;;;;;;;16.86;67.25;100919.13;5049410;28;20036;-74
2022/12/17 17:05:59;;;;;;;37.92;18.48;;;;;;;16.78;67.30;100925.34;5049183;28;20024;-72
2022/12/17 17:08:25;;;;;;;60.38;19.27;;;;;;;16.79;67.22;100918.88;5048977;28;20033;-73
2022/12/17 17:10:51;;;;;;;46.05;18.50;;;;;;;16.85;66.84;100940.00;5048047;28;20056;-72
2022/12/17 17:13:16;;;;;;;48.03;19.80;;;;;;;16.83;66.88;100949.31;5049051;28;20408;-73
2022/12/17 17:15:41;;;;;;;43.85;18.83;;;;;;;16.82;66.89;100953.03;5049361;28;20036;-73
2022/12/17 17:18:07;;;;;;;34.45;17.83;;;;;;;16.82;66.65;100956.59;5049283;28;20070;-72
2022/12/17 17:20:32;;;;;;;37.83;18.38;;;;;;;16.70;66.79;100944.28;5050827;28;20435;-74
2022/12/17 17:22:58;;;;;;;29.00;16.20;;;;;;;16.82;66.50;100964.75;5048675;28;20082;-74
2022/12/17 17:25:24;;;;;;;30.33;15.48;;;;;;;16.83;65.80;100965.63;5047821;28;20031;-74
2022/12/17 17:27:49;;;;;;;24.13;12.27;;;;;;;16.84;65.47;100961.91;5048766;28;20021;-73
2022/12/17 17:30:15;;;;;;;28.33;12.63;;;;;;;16.82;65.10;100974.75;5047825;28;20091;-77
2022/12/17 17:32:40;;;;;;;30.48;16.65;;;;;;;16.79;65.16;100967.78;5048866;28;20095;-74
2022/12/17 17:35:06;;;;;;;34.40;16.05;;;;;;;16.81;65.10;100973.94;5049667;28;20460;-76
2022/12/17 17:37:31;;;;;;;34.00;19.42;;;;;;;16.75;65.13;100965.56;5049046;28;20027;-77
2022/12/17 17:39:57;;;;;;;51.85;18.88;;;;;;;16.32;64.97;100896.56;5048682;28;20039;-76
2022/12/17 17:42:22;;;;;;;58.10;21.38;;;;;;;16.75;65.41;100980.00;5048687;28;20020;-74
2022/12/17 17:44:47;;;;;;;55.90;22.77;;;;;;;16.73;65.38;100967.56;5048878;28;20025;-75
2022/12/17 17:47:13;;;;;;;92.32;23.15;;;;;;;16.81;65.57;100975.78;5051829;28;20093;-74
2022/12/17 17:49:38;;;;;;;70.63;22.85;;;;;;;16.77;65.51;100972.53;5050444;28;20151;-75
2022/12/17 17:52:04;;;;;;;49.83;21.20;;;;;;;16.84;65.35;100987.22;5049611;28;20029;-76
2022/12/17 17:54:29;;;;;;;45.90;21.65;;;;;;;16.84;65.06;100984.50;5049354;28;20695;-74
2022/12/17 17:56:55;;;;;;;46.17;19.83;;;;;;;16.67;64.86;100954.59;5048743;28;20483;-76
2022/12/17 17:59:21;;;;;;;50.38;16.55;;;;;;;16.76;64.56;100980.81;5049323;28;20468;-76
2022/12/17 18:01:49;;;;;;;38.45;16.77;;;;;;;16.78;64.36;100984.25;5049752;28;20029;-75
2022/12/17 18:04:17;;;;;;;35.15;15.05;;;;;;;16.84;63.49;100989.94;5048882;28;20106;-75
2022/12/17 18:06:44;;;;;;;29.92;14.48;;;;;;;16.77;63.24;100972.53;5048763;28;20021;-75
2022/12/17 18:09:11;;;;;;;42.00;14.05;;;;;;;16.70;62.76;100973.28;5047505;28;20400;-76
2022/12/17 18:11:38;;;;;;;36.25;12.40;;;;;;;16.68;62.60;100978.91;5049443;28;20183;-75
2022/12/17 18:14:06;;;;;;;17.42;10.27;;;;;;;16.72;62.88;100987.59;5048746;28;20036;-76
2022/12/17 18:16:37;;;;;;;21.77;9.52;;;;;;;16.68;62.60;100995.19;5048613;28;20029;-74
2022/12/17 18:19:25;;;;;;;23.00;8.82;;;;;;;16.56;62.41;100984.72;5048408;28;20155;-76
2022/12/17 18:21:52;;;;;;;25.48;9.02;;;;;;;16.59;62.30;100985.25;5048606;28;20036;-75
2022/12/17 18:24:21;;;;;;;20.67;9.98;;;;;;;16.69;62.14;101004.22;5048014;28;20044;-76
2022/12/17 18:26:48;;;;;;;34.47;13.20;;;;;;;16.65;62.39;101006.38;5048615;28;20029;-75
2022/12/17 18:29:19;;;;;;;35.53;14.95;;;;;;;16.55;62.66;100983.00;5049694;28;20041;-74
2022/12/17 18:31:45;;;;;;;24.60;13.32;;;;;;;16.53;63.09;100995.84;5048194;28;20037;-75
2022/12/17 18:34:13;;;;;;;30.30;12.85;;;;;;;16.57;63.27;101008.16;5048328;28;20029;-75
2022/12/17 18:36:42;;;;;;;40.85;14.30;;;;;;;16.55;63.21;101002.00;5048236;28;20036;-76
2022/12/17 18:39:11;;;;;;;34.45;12.48;;;;;;;16.49;63.41;100999.88;5048912;28;20033;-76
2022/12/17 18:44:21;;;;;;;18.48;6.55;;;;;;;16.57;62.65;101014.44;5052156;28;20040;-77
2022/12/17 18:46:47;;;;;;;11.45;5.60;;;;;;;16.53;62.74;101012.16;5049202;28;20412;-77
2022/12/17 18:49:14;;;;;;;12.25;5.28;;;;;;;16.48;62.87;101003.63;5050025;28;20076;-78
2022/12/17 18:51:42;;;;;;;9.55;5.90;;;;;;;16.48;63.03;100998.19;5035935;28;20307;-78
2022/12/17 18:54:18;;;;;;;14.77;5.82;;;;;;;16.50;63.24;101009.75;5053358;28;20033;-76
2022/12/17 18:56:44;;;;;;;27.73;6.85;;;;;;;16.58;63.67;101021.56;5047174;28;20025;-75
2022/12/17 18:59:14;;;;;;;29.35;6.88;;;;;;;16.60;63.49;101018.72;5047249;28;20772;-75
2022/12/17 19:01:39;;;;;;;16.08;7.10;;;;;;;16.60;63.49;101018.72;5047746;28;20049;-75
2022/12/17 19:04:07;;;;;;;15.93;6.57;;;;;;;16.63;63.25;101004.81;5047485;28;20872;-75
2022/12/17 19:06:35;;;;;;;19.13;8.95;;;;;;;16.62;63.06;100997.69;5045080;28;20028;-76
2022/12/17 19:09:01;;;;;;;18.35;6.57;;;;;;;16.53;62.95;100990.44;5011311;28;20049;-76
2022/12/17 19:11:31;;;;;;;12.00;5.90;;;;;;;16.70;62.85;101024.91;5047060;28;20170;-76
2022/12/17 19:13:56;;;;;;;14.95;5.75;;;;;;;16.69;61.94;101028.66;5047737;28;20056;-76
2022/12/17 19:16:24;;;;;;;18.02;6.35;;;;;;;16.65;62.10;101038.09;5047626;28;20440;-76
2022/12/17 19:18:58;;;;;;;20.02;8.60;;;;;;;16.66;62.59;101056.13;5047452;28;20033;-77
2022/12/17 19:21:24;;;;;;;27.13;8.60;;;;;;;16.23;62.84;101000.63;5048703;28;20120;-77
2022/12/17 19:23:55;;;;;;;19.63;9.80;;;;;;;16.45;62.95;101069.09;5050545;28;20033;-76
2022/12/17 19:26:22;;;;;;;24.35;8.85;;;;;;;16.43;62.95;101063.78;5051457;28;20032;-76
2022/12/17 19:28:49;;;;;;;23.25;10.38;;;;;;;16.34;63.46;101073.72;5051233;28;20054;-76
2022/12/17 19:31:16;;;;;;;12.23;8.20;;;;;;;16.08;63.22;101039.28;5051669;28;20029;-76
2022/12/17 19:33:42;;;;;;;20.55;9.80;;;;;;;16.18;63.90;101076.22;5051607;28;20025;-76
2022/12/17 19:36:11;;;;;;;21.38;10.20;;;;;;;16.11;64.46;101085.97;5051079;28;20028;-75
2022/12/17 19:38:37;;;;;;;22.85;9.32;;;;;;;15.83;64.35;101045.38;5051738;28;20075;-76
2022/12/17 19:41:04;;;;;;;27.08;9.77;;;;;;;16.01;64.88;101087.88;5051023;28;20049;-75
2022/12/17 19:43:29;;;;;;;31.55;10.73;;;;;;;16.04;64.93;101078.56;5050911;28;20028;-76
2022/12/17 19:46:01;;;;;;;28.08;10.45;;;;;;;16.01;65.41;101082.44;5050822;28;20507;-77
2022/12/17 19:48:26;;;;;;;28.73;9.63;;;;;;;15.83;65.24;101038.09;5050857;28;20110;-76
2022/12/17 19:50:58;;;;;;;13.87;7.17;;;;;;;16.02;64.97;101062.44;5051783;28;20029;-75
2022/12/17 19:53:26;;;;;;;22.87;7.77;;;;;;;15.98;64.93;101063.75;5055839;28;20122;-77
2022/12/17 19:55:53;;;;;;;15.18;7.97;;;;;;;15.90;65.17;101052.75;5054375;28;20778;-77
2022/12/17 19:58:18;;;;;;;16.92;6.10;;;;;;;15.90;65.33;101065.50;5052172;28;20470;-75
2022/12/17 20:00:44;;;;;;;11.85;7.55;;;;;;;15.88;65.08;101087.31;5051483;28;20163;-76
2022/12/17 20:03:09;;;;;;;9.70;5.65;;;;;;;15.90;65.31;101098.88;5051540;28;20115;-74
2022/12/17 20:05:35;;;;;;;12.93;7.13;;;;;;;15.85;65.25;101092.19;5051392;28;20035;-76
2022/12/17 20:08:00;;;;;;;11.85;6.95;;;;;;;15.85;65.33;101100.31;5051578;28;20029;-76
2022/12/17 20:10:25;;;;;;;21.73;7.85;;;;;;;15.76;65.89;101105.63;5051147;28;20021;-77
2022/12/17 20:12:51;;;;;;;19.25;8.68;;;;;;;15.58;65.73;101065.84;5051084;28;20029;-75
2022/12/17 20:15:16;;;;;;;12.80;7.53;;;;;;;15.76;65.69;101110.19;5051200;28;20025;-76
2022/12/17 20:17:42;;;;;;;16.08;7.40;;;;;;;15.78;66.22;101113.63;5050947;28;20392;-76
2022/12/17 20:20:07;;;;;;;11.45;6.47;;;;;;;15.65;66.29;101099.53;5051214;28;20463;-74
2022/12/17 20:22:33;;;;;;;10.65;5.65;;;;;;;15.78;66.14;101125.31;5050887;28;20111;-76
2022/12/17 20:25:00;;;;;;;11.05;6.10;;;;;;;15.74;66.21;101107.66;5051261;28;20029;-76
2022/12/17 20:27:26;;;;;;;9.95;6.05;;;;;;;15.60;65.99;101088.25;5050885;28;20032;-75
2022/12/17 20:29:52;;;;;;;8.65;6.28;;;;;;;15.78;66.42;101114.47;5050825;28;20075;-75
2022/12/17 20:32:19;;;;;;;62.83;34.15;;;;;;;15.85;66.02;101131.03;5050598;28;20032;-75
2022/12/17 20:34:45;;;;;;;15.10;6.53;;;;;;;15.78;66.24;101132.59;5050843;28;20040;-75
2022/12/17 20:37:10;;;;;;;12.55;5.55;;;;;;;15.77;65.94;101136.34;5050973;28;20025;-76
2022/12/17 20:39:36;;;;;;;16.25;5.68;;;;;;;15.75;66.07;101154.59;5050939;28;20495;-75
2022/12/17 20:42:01;;;;;;;11.82;6.07;;;;;;;15.74;66.13;101142.06;5050809;28;20111;-75
2022/12/17 20:44:27;;;;;;;17.83;6.63;;;;;;;15.66;66.08;101158.16;5050671;28;20025;-76
2022/12/17 20:46:53;;;;;;;7.53;5.55;;;;;;;15.51;66.56;101129.78;5050792;28;20036;-76
2022/12/17 20:49:19;;;;;;;10.45;5.38;;;;;;;15.65;66.43;101170.03;5051605;28;20106;-75
2022/12/17 20:51:44;;;;;;;10.57;5.90;;;;;;;15.48;66.46;101133.66;5051411;28;20029;-76
2022/12/17 20:54:10;;;;;;;11.43;6.10;;;;;;;15.67;66.35;101178.88;5051439;28;20571;-77
2022/12/17 20:56:37;;;;;;;61.10;36.13;;;;;;;15.53;66.59;101157.63;5052761;28;20075;-76
2022/12/17 20:59:05;;;;;;;28.33;9.45;;;;;;;15.58;66.80;101175.19;5054979;28;20044;-76
2022/12/17 21:01:33;;;;;;;16.13;6.60;;;;;;;15.56;67.17;101179.03;5053112;28;20029;-76
2022/12/17 21:04:00;;;;;;;14.93;6.28;;;;;;;15.59;67.00;101173.31;5051571;28;20037;-75
2022/12/17 21:06:38;;;;;;;8.68;5.28;;;;;;;15.66;66.63;101191.56;5050516;28;20068;-77
2022/12/17 21:09:04;;;;;;;9.18;5.50;;;;;;;15.65;66.77;101183.59;5051878;28;20032;-76
2022/12/17 21:11:31;;;;;;;13.32;5.63;;;;;;;15.66;66.95;101185.28;5051956;28;20036;-76
2022/12/17 21:13:58;;;;;;;18.80;6.40;;;;;;;15.37;66.70;101146.47;5049065;28;20127;-76
2022/12/17 21:16:27;;;;;;;7.25;5.30;;;;;;;15.45;66.87;101173.69;5050230;28;20033;-76
2022/12/17 21:18:57;;;;;;;12.68;6.18;;;;;;;15.58;67.39;101201.44;5050447;28;20025;-77
2022/12/17 21:21:26;;;;;;;7.95;5.55;;;;;;;15.47;67.18;101169.03;5050366;28;20146;-76
2022/12/17 21:23:51;;;;;;;16.17;6.32;;;;;;;15.70;66.76;101203.00;5049899;28;20033;-75
2022/12/17 21:26:20;;;;;;;14.88;4.60;;;;;;;15.67;66.57;101192.44;5050123;28;20054;-75
2022/12/17 21:28:48;;;;;;;11.98;4.93;;;;;;;15.68;66.44;101203.16;5049894;28;20024;-76
2022/12/17 21:31:16;;;;;;;24.27;11.65;;;;;;;15.70;66.75;101203.84;5050210;28;20028;-76
2022/12/17 21:33:42;;;;;;;76.80;50.47;;;;;;;15.69;66.57;101222.97;5050194;28;20062;-76
2022/12/17 21:36:08;;;;;;;19.83;6.40;;;;;;;15.64;66.69;101219.84;5050229;28;20025;-76
2022/12/17 21:38:33;;;;;;;10.25;5.25;;;;;;;15.61;66.48;101214.69;5049787;28;20028;-77
2022/12/17 21:41:07;;;;;;;8.30;5.68;;;;;;;15.48;66.52;101214.13;5050141;28;20104;-75
2022/12/17 21:43:33;;;;;;;10.98;6.25;;;;;;;15.46;67.15;101216.09;5049645;28;20025;-76
2022/12/17 21:45:59;;;;;;;10.38;6.07;;;;;;;15.43;66.95;101210.94;5048772;28;20599;-74
2022/12/17 21:48:25;;;;;;;15.70;5.82;;;;;;;15.49;67.32;101215.84;5049748;28;20056;-77
2022/12/17 21:50:51;;;;;;;13.73;6.00;;;;;;;15.43;66.98;101211.81;5063798;28;20037;-75
2022/12/17 21:53:16;;;;;;;14.52;5.22;;;;;;;15.40;67.28;101205.81;5047931;28;20029;-76
2022/12/17 21:55:42;;;;;;;7.80;5.18;;;;;;;15.24;67.01;101182.84;5049518;28;20056;-76
2022/12/17 21:58:07;;;;;;;7.47;4.90;;;;;;;15.33;67.02;101204.66;5049382;28;20437;-75
2022/12/17 22:00:34;;;;;;;11.88;4.78;;;;;;;15.45;67.21;101214.38;5049399;28;20037;-75
2022/12/17 22:03:00;;;;;;;9.55;4.90;;;;;;;15.46;66.90;101221.50;5054178;28;20025;-75
2022/12/17 22:05:26;;;;;;;13.18;4.93;;;;;;;15.43;66.92;101213.66;5056209;28;20036;-76
2022/12/17 22:07:51;;;;;;;8.40;4.65;;;;;;;15.43;67.22;101227.22;5053511;28;20029;-76
2022/12/17 22:10:18;;;;;;;10.43;6.68;;;;;;;15.43;66.97;101227.22;5049060;28;20037;-75
2022/12/17 22:15:27;;;;;;;15.10;6.50;;;;;;;15.36;67.19;101221.50;5048159;28;20455;-76
2022/12/17 22:17:54;;;;;;;16.55;6.57;;;;;;;15.28;67.33;101210.53;5049216;28;20021;-77
2022/12/17 22:20:20;;;;;;;14.90;6.10;;;;;;;15.22;67.34;101187.56;5049251;28;20103;-75
2022/12/17 22:22:45;;;;;;;11.48;5.82;;;;;;;15.44;66.83;101215.38;5049196;28;20494;-76
2022/12/17 22:25:11;;;;;;;10.57;5.78;;;;;;;15.25;66.14;101181.84;5049221;28;20025;-75
2022/12/17 22:27:37;;;;;;;10.75;5.70;;;;;;;15.27;66.45;101208.78;5049285;28;20029;-76
2022/12/17 22:33:01;;;;;;;12.35;5.65;;;;;;;14.95;66.32;101179.22;5048879;28;20143;-75
2022/12/17 22:35:32;;;;;;;8.65;5.22;;;;;;;15.06;65.46;101217.03;5049189;28;20476;-76
2022/12/17 22:37:58;;;;;;;12.35;4.78;;;;;;;14.90;65.24;101224.84;5049189;28;20399;-76
2022/12/17 22:40:23;;;;;;;7.95;4.85;;;;;;;14.81;65.87;101220.25;5049398;28;20029;-75
2022/12/17 22:45:32;;;;;;;6.10;3.90;;;;;;;14.78;65.21;101235.91;5049209;28;20040;-74
2022/12/17 22:47:58;;;;;;;13.15;4.13;;;;;;;14.63;65.19;101239.00;5049308;28;20107;-76
2022/12/17 22:50:24;;;;;;;7.65;4.57;;;;;;;14.70;65.57;101242.88;5049114;28;20504;-75
2022/12/17 22:52:49;;;;;;;7.22;4.20;;;;;;;14.62;65.35;101236.41;5049361;28;20035;-76
2022/12/17 22:55:14;;;;;;;8.05;4.43;;;;;;;14.67;65.46;101256.69;5049009;28;20462;-77
2022/12/17 22:57:40;;;;;;;7.07;5.15;;;;;;;14.66;65.26;101257.66;5052363;28;20033;-76
2022/12/17 23:00:11;;;;;;;8.07;4.90;;;;;;;14.72;65.19;101269.81;5053353;28;20108;-76
2022/12/17 23:02:37;;;;;;;8.57;5.20;;;;;;;14.62;65.25;101258.94;5050918;28;20041;-75
2022/12/17 23:05:02;;;;;;;11.27;5.57;;;;;;;14.69;64.96;101275.50;5052986;28;20083;-76
2022/12/17 23:07:28;;;;;;;13.00;6.13;;;;;;;14.65;64.84;101284.88;5053606;28;20020;-74
2022/12/17 23:09:53;;;;;;;7.68;4.88;;;;;;;14.59;65.00;101283.56;5059941;28;20074;-76
2022/12/17 23:15:03;;;;;;;8.48;4.82;;;;;;;14.62;65.06;101286.00;5052869;28;20495;-75
2022/12/17 23:17:28;;;;;;;10.80;5.75;;;;;;;14.60;64.92;101295.25;5052556;28;20017;-75
2022/12/17 23:19:54;;;;;;;9.90;5.85;;;;;;;14.56;65.32;101301.91;5052939;28;20494;-76
2022/12/17 23:22:19;;;;;;;10.63;5.13;;;;;;;14.53;65.32;101294.06;5052778;28;20033;-74
2022/12/17 23:24:47;;;;;;;7.82;4.78;;;;;;;14.54;65.16;101303.91;5052271;28;20087;-75
2022/12/17 23:27:13;;;;;;;8.38;4.65;;;;;;;14.50;64.99;101302.44;5052819;28;20394;-75
2022/12/17 23:29:38;;;;;;;8.43;4.80;;;;;;;14.47;65.40;101316.25;5052325;28;20029;-76
2022/12/17 23:32:04;;;;;;;8.18;4.68;;;;;;;14.26;65.63;101288.31;5054274;28;20021;-76
2022/12/17 23:34:29;;;;;;;7.45;4.70;;;;;;;14.38;65.54;101319.75;5055308;28;20029;-76
2022/12/17 23:36:54;;;;;;;7.85;4.72;;;;;;;14.27;65.90;101323.38;5055582;28;20025;-76
2022/12/17 23:39:20;;;;;;;19.50;4.82;;;;;;;14.31;65.86;101332.09;5053244;28;20029;-75
2022/12/17 23:41:45;;;;;;;7.43;5.18;;;;;;;14.30;66.14;101320.41;5052172;28;20025;-74
2022/12/17 23:44:11;;;;;;;7.20;4.68;;;;;;;14.40;66.07;101310.50;5052958;28;20036;-75
2022/12/17 23:46:36;;;;;;;7.22;5.03;;;;;;;14.45;65.62;101327.22;5056695;28;20400;-75
2022/12/17 23:49:04;;;;;;;11.32;5.53;;;;;;;14.18;65.65;101305.22;5056277;28;20047;-75
2022/12/17 23:51:31;;;;;;;6.97;5.00;;;;;;;14.19;65.35;101318.59;5057552;28;20777;-77
2022/12/17 23:53:57;;;;;;;9.45;5.00;;;;;;;14.01;65.71;101327.41;5056787;28;20036;-75
2022/12/17 23:56:25;;;;;;;9.35;5.93;;;;;;;14.30;65.64;101382.63;5054478;28;20090;-77
2022/12/17 23:58:54;;;;;;;7.20;4.13;;;;;;;14.17;65.85;101374.69;5054043;28;20032;-75
